createdAt,value
2023-04-18T00:00:46.849Z,6.71
2023-04-18T00:01:46.918Z,6.69
2023-04-18T00:02:46.957Z,6.67
2023-04-18T00:03:46.946Z,6.65
2023-04-18T00:04:46.918Z,6.63
2023-04-18T00:05:46.829Z,6.61
2023-04-18T00:06:46.831Z,6.59
2023-04-18T00:07:46.840Z,6.57
2023-04-18T00:08:46.766Z,6.56
2023-04-18T00:09:46.759Z,6.54
2023-04-18T00:10:46.737Z,6.52
2023-04-18T00:11:46.847Z,6.50
2023-04-18T00:12:46.701Z,6.49
2023-04-18T00:13:46.713Z,6.47
2023-04-18T00:14:46.839Z,6.46
2023-04-18T00:15:46.688Z,6.45
2023-04-18T00:16:46.757Z,6.44
2023-04-18T00:17:46.709Z,6.43
2023-04-18T00:18:46.647Z,6.43
2023-04-18T00:19:46.653Z,6.42
2023-04-18T00:20:46.596Z,6.42
2023-04-18T00:21:46.624Z,6.42
2023-04-18T00:22:46.775Z,6.42
2023-04-18T00:23:46.584Z,6.42
2023-04-18T00:24:46.576Z,6.42
2023-04-18T00:25:46.562Z,6.42
2023-04-18T00:26:46.552Z,6.42
2023-04-18T00:27:46.546Z,6.42
2023-04-18T00:28:46.511Z,6.41
2023-04-18T00:29:46.519Z,6.40
2023-04-18T00:30:46.874Z,6.39
2023-04-18T00:31:46.530Z,6.38
2023-04-18T00:32:46.522Z,6.37
2023-04-18T00:33:46.459Z,6.37
2023-04-18T00:34:46.462Z,6.36
2023-04-18T00:35:46.836Z,6.36
2023-04-18T00:36:46.453Z,6.35
2023-04-18T00:37:46.859Z,6.34
2023-04-18T00:38:46.856Z,6.34
2023-04-18T00:39:46.863Z,6.33
2023-04-18T00:40:46.382Z,6.32
2023-04-18T00:41:46.397Z,6.31
2023-04-18T00:42:46.356Z,6.29
2023-04-18T00:43:46.362Z,6.28
2023-04-18T00:44:46.334Z,6.26
2023-04-18T00:45:46.358Z,6.25
2023-04-18T00:46:46.362Z,6.24
2023-04-18T00:47:46.891Z,6.23
2023-04-18T00:48:46.861Z,6.22
2023-04-18T00:49:46.293Z,6.20
2023-04-18T00:50:46.249Z,6.18
2023-04-18T00:51:46.285Z,6.17
2023-04-18T00:52:46.237Z,6.15
2023-04-18T00:53:46.254Z,6.14
2023-04-18T00:54:46.223Z,6.12
2023-04-18T00:55:46.209Z,6.10
2023-04-18T00:56:46.215Z,6.09
2023-04-18T00:57:46.199Z,6.08
2023-04-18T00:58:46.207Z,6.06
2023-04-18T00:59:46.164Z,6.04
2023-04-18T01:00:46.141Z,6.01
2023-04-18T01:01:46.200Z,5.99
2023-04-18T01:02:46.204Z,5.97
2023-04-18T01:03:46.217Z,5.95
2023-04-18T01:04:46.110Z,5.93
2023-04-18T01:05:46.087Z,5.92
2023-04-18T01:06:46.330Z,5.90
2023-04-18T01:07:46.069Z,5.89
2023-04-18T01:08:46.044Z,5.87
2023-04-18T01:09:46.485Z,5.86
2023-04-18T01:10:46.494Z,5.83
2023-04-18T01:11:46.039Z,5.81
2023-04-18T01:12:46.541Z,5.79
2023-04-18T01:13:45.998Z,5.76
2023-04-18T01:14:45.973Z,5.72
2023-04-18T01:15:46.114Z,5.68
2023-04-18T01:16:45.980Z,5.65
2023-04-18T01:17:45.968Z,5.63
2023-04-18T01:18:45.931Z,5.61
2023-04-18T01:19:45.941Z,5.59
2023-04-18T01:20:45.902Z,5.58
2023-04-18T01:21:45.936Z,5.56
2023-04-18T01:22:45.894Z,5.54
2023-04-18T01:23:45.902Z,5.52
2023-04-18T01:24:45.871Z,5.50
2023-04-18T01:25:45.866Z,5.47
2023-04-18T01:26:45.861Z,5.44
2023-04-18T01:27:45.866Z,5.41
2023-04-18T01:28:45.810Z,5.39
2023-04-18T01:29:45.809Z,5.38
2023-04-18T01:30:45.801Z,5.37
2023-04-18T01:31:45.979Z,5.37
2023-04-18T01:32:45.795Z,5.36
2023-04-18T01:33:46.107Z,5.35
2023-04-18T01:34:45.738Z,5.33
2023-04-18T01:35:45.740Z,5.31
2023-04-18T01:36:45.714Z,5.30
2023-04-18T01:37:45.735Z,5.29
2023-04-18T01:38:45.693Z,5.27
2023-04-18T01:39:45.717Z,5.26
2023-04-18T01:40:45.672Z,5.25
2023-04-18T01:41:45.680Z,5.23
2023-04-18T01:42:45.661Z,5.22
2023-04-18T01:43:47.150Z,5.19
2023-04-18T01:44:45.650Z,5.16
2023-04-18T01:45:45.633Z,5.14
2023-04-18T01:46:45.806Z,5.12
2023-04-18T01:47:45.628Z,5.09
2023-04-18T01:48:45.609Z,5.07
2023-04-18T01:49:45.864Z,5.06
2023-04-18T01:50:45.566Z,5.04
2023-04-18T01:51:45.562Z,5.03
2023-04-18T01:52:45.543Z,5.00
2023-04-18T01:53:45.558Z,4.98
2023-04-18T01:54:45.537Z,4.95
2023-04-18T01:55:45.920Z,4.93
2023-04-18T01:56:45.486Z,4.91
2023-04-18T01:57:45.896Z,4.90
2023-04-18T01:58:45.935Z,4.88
2023-04-18T01:59:45.676Z,4.87
2023-04-18T02:00:45.501Z,4.85
2023-04-18T02:01:45.971Z,4.85
2023-04-18T02:02:45.534Z,4.84
2023-04-18T02:03:45.729Z,4.84
2023-04-18T02:04:45.645Z,4.84
2023-04-18T02:05:45.923Z,4.83
2023-04-18T02:06:45.591Z,4.83
2023-04-18T02:07:45.937Z,4.82
2023-04-18T02:08:45.385Z,4.82
2023-04-18T02:09:45.568Z,4.82
2023-04-18T02:10:45.943Z,4.82
2023-04-18T02:11:45.340Z,4.82
2023-04-18T02:12:45.303Z,4.82
2023-04-18T02:13:46.764Z,4.82
2023-04-18T02:14:45.271Z,4.82
2023-04-18T02:15:45.323Z,4.81
2023-04-18T02:16:45.344Z,4.80
2023-04-18T02:17:45.303Z,4.80
2023-04-18T02:18:45.478Z,4.79
2023-04-18T02:19:45.239Z,4.79
2023-04-18T02:20:45.354Z,4.78
2023-04-18T02:21:45.219Z,4.77
2023-04-18T02:22:45.468Z,4.77
2023-04-18T02:23:45.205Z,4.77
2023-04-18T02:24:45.174Z,4.77
2023-04-18T02:25:45.192Z,4.76
2023-04-18T02:26:45.519Z,4.76
2023-04-18T02:27:45.532Z,4.74
2023-04-18T02:28:45.549Z,4.73
2023-04-18T02:29:45.139Z,4.71
2023-04-18T02:30:45.578Z,4.69
2023-04-18T02:31:45.158Z,4.68
2023-04-18T02:32:45.123Z,4.66
2023-04-18T02:33:45.076Z,4.65
2023-04-18T02:34:45.184Z,4.64
2023-04-18T02:35:45.064Z,4.63
2023-04-18T02:36:45.092Z,4.62
2023-04-18T02:37:45.221Z,4.61
2023-04-18T02:38:45.034Z,4.61
2023-04-18T02:39:45.339Z,4.60
2023-04-18T02:40:45.043Z,4.59
2023-04-18T02:41:44.989Z,4.59
2023-04-18T02:42:44.965Z,4.58
2023-04-18T02:43:44.947Z,4.57
2023-04-18T02:44:44.949Z,4.57
2023-04-18T02:45:45.546Z,4.56
2023-04-18T02:46:44.961Z,4.55
2023-04-18T02:47:54.287Z,4.53
2023-04-18T02:48:45.903Z,4.52
2023-04-18T02:49:44.892Z,4.50
2023-04-18T02:50:44.887Z,4.49
2023-04-18T02:51:44.865Z,4.47
2023-04-18T02:52:44.870Z,4.45
2023-04-18T02:53:44.866Z,4.42
2023-04-18T02:54:44.851Z,4.40
2023-04-18T02:55:44.970Z,4.38
2023-04-18T02:56:44.822Z,4.37
2023-04-18T02:57:44.795Z,4.37
2023-04-18T02:58:44.780Z,4.37
2023-04-18T02:59:44.778Z,4.36
2023-04-18T03:00:44.773Z,4.36
2023-04-18T03:01:44.986Z,4.35
2023-04-18T03:02:46.318Z,4.35
2023-04-18T03:03:44.718Z,4.34
2023-04-18T03:04:45.041Z,4.34
2023-04-18T03:05:44.687Z,4.33
2023-04-18T03:06:44.694Z,4.32
2023-04-18T03:07:44.799Z,4.31
2023-04-18T03:08:44.671Z,4.30
2023-04-18T03:09:44.978Z,4.30
2023-04-18T03:10:44.652Z,4.29
2023-04-18T03:11:44.979Z,4.28
2023-04-18T03:12:44.654Z,4.27
2023-04-18T03:13:44.613Z,4.26
2023-04-18T03:14:46.080Z,4.25
2023-04-18T03:15:44.671Z,4.23
2023-04-18T03:16:44.588Z,4.22
2023-04-18T03:17:45.008Z,4.21
2023-04-18T03:18:44.568Z,4.20
2023-04-18T03:19:44.572Z,4.19
2023-04-18T03:20:44.549Z,4.18
2023-04-18T03:21:44.615Z,4.16
2023-04-18T03:22:44.562Z,4.14
2023-04-18T03:23:44.486Z,4.11
2023-04-18T03:24:44.497Z,4.08
2023-04-18T03:25:44.731Z,4.04
2023-04-18T03:26:44.564Z,4.01
2023-04-18T03:27:44.787Z,3.98
2023-04-18T03:28:44.440Z,3.96
2023-04-18T03:29:44.422Z,3.94
2023-04-18T03:30:44.892Z,3.92
2023-04-18T03:31:44.481Z,3.91
2023-04-18T03:32:44.458Z,3.89
2023-04-18T03:33:44.384Z,3.89
2023-04-18T03:34:44.420Z,3.88
2023-04-18T03:35:44.417Z,3.87
2023-04-18T03:36:45.924Z,3.86
2023-04-18T03:37:44.320Z,3.85
2023-04-18T03:38:44.460Z,3.85
2023-04-18T03:39:44.291Z,3.85
2023-04-18T03:40:44.297Z,3.84
2023-04-18T03:41:44.500Z,3.84
2023-04-18T03:42:44.283Z,3.84
2023-04-18T03:43:44.249Z,3.84
2023-04-18T03:44:44.552Z,3.84
2023-04-18T03:45:44.358Z,3.84
2023-04-18T03:46:45.789Z,3.83
2023-04-18T03:47:44.652Z,3.83
2023-04-18T03:48:44.228Z,3.83
2023-04-18T03:49:44.618Z,3.83
2023-04-18T03:50:44.566Z,3.84
2023-04-18T03:51:44.220Z,3.83
2023-04-18T03:52:44.160Z,3.83
2023-04-18T03:53:44.680Z,3.82
2023-04-18T03:54:44.154Z,3.82
2023-04-18T03:55:44.112Z,3.82
2023-04-18T03:56:45.585Z,3.82
2023-04-18T03:57:44.441Z,3.81
2023-04-18T03:58:44.114Z,3.81
2023-04-18T03:59:46.145Z,3.80
2023-04-18T04:00:44.054Z,3.80
2023-04-18T04:01:44.794Z,3.79
2023-04-18T04:02:44.305Z,3.79
2023-04-18T04:03:44.225Z,3.79
2023-04-18T04:04:44.065Z,3.78
2023-04-18T04:05:44.027Z,3.78
2023-04-18T04:06:44.028Z,3.78
2023-04-18T04:07:43.967Z,3.77
2023-04-18T04:08:43.982Z,3.77
2023-04-18T04:09:43.948Z,3.76
2023-04-18T04:10:43.952Z,3.74
2023-04-18T04:11:43.939Z,3.72
2023-04-18T04:12:43.942Z,3.71
2023-04-18T04:13:43.901Z,3.70
2023-04-18T04:14:43.913Z,3.70
2023-04-18T04:15:43.870Z,3.70
2023-04-18T04:16:43.926Z,3.69
2023-04-18T04:17:43.916Z,3.69
2023-04-18T04:18:43.885Z,3.69
2023-04-18T04:19:43.835Z,3.68
2023-04-18T04:20:43.834Z,3.67
2023-04-18T04:21:44.036Z,3.66
2023-04-18T04:22:43.816Z,3.65
2023-04-18T04:23:43.781Z,3.63
2023-04-18T04:24:43.793Z,3.62
2023-04-18T04:25:43.767Z,3.61
2023-04-18T04:26:43.767Z,3.60
2023-04-18T04:27:43.770Z,3.60
2023-04-18T04:28:43.749Z,3.60
2023-04-18T04:29:43.716Z,3.60
2023-04-18T04:30:43.711Z,3.60
2023-04-18T04:31:43.844Z,3.60
2023-04-18T04:32:43.757Z,3.60
2023-04-18T04:33:43.698Z,3.61
2023-04-18T04:34:43.677Z,3.61
2023-04-18T04:35:43.650Z,3.60
2023-04-18T04:36:43.642Z,3.59
2023-04-18T04:37:43.632Z,3.58
2023-04-18T04:38:43.640Z,3.57
2023-04-18T04:39:43.592Z,3.57
2023-04-18T04:40:43.596Z,3.56
2023-04-18T04:41:43.584Z,3.55
2023-04-18T04:42:44.052Z,3.54
2023-04-18T04:43:43.553Z,3.53
2023-04-18T04:44:43.652Z,3.52
2023-04-18T04:45:43.897Z,3.50
2023-04-18T04:46:43.515Z,3.50
2023-04-18T04:47:44.062Z,3.50
2023-04-18T04:48:43.727Z,3.51
2023-04-18T04:49:43.490Z,3.51
2023-04-18T04:50:43.471Z,3.52
2023-04-18T04:51:43.447Z,3.53
2023-04-18T04:52:43.451Z,3.53
2023-04-18T04:53:43.495Z,3.53
2023-04-18T04:54:43.462Z,3.53
2023-04-18T04:55:43.396Z,3.52
2023-04-18T04:56:43.390Z,3.51
2023-04-18T04:57:43.424Z,3.49
2023-04-18T04:58:43.385Z,3.48
2023-04-18T04:59:43.381Z,3.47
2023-04-18T05:00:43.371Z,3.47
2023-04-18T05:01:43.417Z,3.48
2023-04-18T05:02:43.497Z,3.49
2023-04-18T05:03:43.531Z,3.51
2023-04-18T05:04:43.392Z,3.53
2023-04-18T05:05:43.283Z,3.55
2023-04-18T05:06:43.306Z,3.56
2023-04-18T05:07:43.686Z,3.58
2023-04-18T05:08:43.475Z,3.59
2023-04-18T05:09:43.753Z,3.61
2023-04-18T05:10:43.736Z,3.64
2023-04-18T05:11:43.208Z,3.67
2023-04-18T05:12:43.215Z,3.70
2023-04-18T05:13:43.177Z,3.73
2023-04-18T05:14:43.216Z,3.76
2023-04-18T05:15:43.165Z,3.79
2023-04-18T05:16:43.208Z,3.80
2023-04-18T05:17:43.843Z,3.81
2023-04-18T05:18:43.160Z,3.82
2023-04-18T05:19:43.145Z,3.82
2023-04-18T05:20:43.113Z,3.83
2023-04-18T05:21:43.126Z,3.85
2023-04-18T05:22:43.100Z,3.87
2023-04-18T05:23:43.059Z,3.89
2023-04-18T05:24:43.091Z,3.92
2023-04-18T05:25:43.084Z,3.95
2023-04-18T05:26:44.516Z,3.98
2023-04-18T05:27:43.023Z,4.02
2023-04-18T05:28:43.033Z,4.05
2023-04-18T05:29:43.012Z,4.07
2023-04-18T05:30:43.031Z,4.09
2023-04-18T05:31:42.984Z,4.12
2023-04-18T05:32:43.056Z,4.15
2023-04-18T05:33:43.089Z,4.19
2023-04-18T05:34:43.082Z,4.23
2023-04-18T05:35:42.930Z,4.27
2023-04-18T05:36:42.935Z,4.31
2023-04-18T05:37:42.916Z,4.35
2023-04-18T05:38:43.079Z,4.38
2023-04-18T05:39:42.910Z,4.40
2023-04-18T05:40:42.887Z,4.41
2023-04-18T05:41:43.089Z,4.42
2023-04-18T05:42:43.098Z,4.43
2023-04-18T05:43:44.482Z,4.43
2023-04-18T05:44:43.865Z,4.43
2023-04-18T05:45:42.860Z,4.44
2023-04-18T05:46:42.914Z,4.46
2023-04-18T05:47:42.872Z,4.49
2023-04-18T05:48:42.799Z,4.52
2023-04-18T05:49:43.111Z,4.54
2023-04-18T05:50:42.818Z,4.57
2023-04-18T05:51:42.749Z,4.61
2023-04-18T05:52:42.748Z,4.65
2023-04-18T05:53:42.726Z,4.70
2023-04-18T05:54:42.727Z,4.75
2023-04-18T05:55:42.725Z,4.79
2023-04-18T05:56:42.722Z,4.82
2023-04-18T05:57:43.105Z,4.86
2023-04-18T05:58:43.607Z,4.90
2023-04-18T05:59:44.108Z,4.94
2023-04-18T06:00:42.674Z,4.98
2023-04-18T06:01:42.673Z,5.01
2023-04-18T06:02:42.766Z,5.05
2023-04-18T06:03:42.862Z,5.10
2023-04-18T06:04:42.907Z,5.15
2023-04-18T06:05:43.134Z,5.22
2023-04-18T06:06:42.615Z,5.30
2023-04-18T06:07:42.574Z,5.37
2023-04-18T06:08:42.567Z,5.44
2023-04-18T06:09:42.553Z,5.52
2023-04-18T06:10:42.545Z,5.62
2023-04-18T06:11:42.603Z,5.72
2023-04-18T06:12:42.529Z,5.82
2023-04-18T06:13:42.634Z,5.93
2023-04-18T06:14:42.509Z,6.05
2023-04-18T06:15:42.597Z,6.16
2023-04-18T06:16:42.530Z,6.27
2023-04-18T06:17:42.520Z,6.38
2023-04-18T06:18:42.459Z,6.47
2023-04-18T06:19:42.450Z,6.58
2023-04-18T06:20:42.448Z,6.69
2023-04-18T06:21:42.433Z,6.81
2023-04-18T06:22:42.406Z,6.94
2023-04-18T06:23:42.386Z,7.07
2023-04-18T06:24:42.391Z,7.20
2023-04-18T06:25:42.355Z,7.37
2023-04-18T06:26:42.350Z,7.55
2023-04-18T06:27:42.352Z,7.74
2023-04-18T06:28:42.337Z,7.95
2023-04-18T06:29:42.910Z,8.17
2023-04-18T06:30:42.301Z,8.37
2023-04-18T06:31:42.421Z,8.55
2023-04-18T06:32:42.348Z,8.72
2023-04-18T06:33:42.884Z,8.87
2023-04-18T06:34:42.261Z,9.06
2023-04-18T06:35:42.260Z,9.26
2023-04-18T06:36:42.276Z,9.47
2023-04-18T06:37:42.438Z,9.66
2023-04-18T06:38:42.979Z,9.85
2023-04-18T06:39:42.187Z,10.01
2023-04-18T06:40:42.201Z,10.15
2023-04-18T06:41:42.162Z,10.29
2023-04-18T06:42:42.201Z,10.43
2023-04-18T06:43:49.311Z,10.57
2023-04-18T06:44:43.318Z,10.70
2023-04-18T06:45:42.499Z,10.81
2023-04-18T06:46:42.106Z,10.96
2023-04-18T06:47:42.187Z,11.14
2023-04-18T06:48:42.061Z,11.34
2023-04-18T06:49:42.089Z,11.51
2023-04-18T06:50:42.065Z,11.66
2023-04-18T06:51:42.068Z,11.79
2023-04-18T06:52:42.059Z,11.92
2023-04-18T06:53:42.054Z,12.09
2023-04-18T06:54:42.047Z,12.26
2023-04-18T06:55:42.046Z,12.43
2023-04-18T06:56:41.978Z,12.60
2023-04-18T06:57:41.995Z,12.74
2023-04-18T06:58:41.985Z,12.87
2023-04-18T06:59:41.993Z,13.01
2023-04-18T07:00:42.056Z,13.14
2023-04-18T07:01:41.967Z,13.26
2023-04-18T07:02:42.030Z,13.37
2023-04-18T07:03:42.108Z,13.45
2023-04-18T07:04:41.984Z,13.53
2023-04-18T07:05:41.883Z,13.64
2023-04-18T07:06:41.866Z,13.75
2023-04-18T07:07:41.882Z,13.86
2023-04-18T07:08:41.859Z,13.97
2023-04-18T07:09:41.874Z,14.01
2023-04-18T07:10:41.819Z,14.00
2023-04-18T07:11:41.830Z,14.02
2023-04-18T07:12:41.821Z,14.11
2023-04-18T07:13:41.820Z,14.22
2023-04-18T07:14:41.803Z,14.34
2023-04-18T07:15:41.782Z,14.37
2023-04-18T07:16:41.815Z,14.34
2023-04-18T07:17:41.771Z,14.35
2023-04-18T07:18:41.743Z,14.39
2023-04-18T07:19:41.755Z,14.41
2023-04-18T07:20:41.744Z,14.44
2023-04-18T07:21:41.701Z,14.52
2023-04-18T07:22:41.682Z,14.65
2023-04-18T07:23:41.691Z,14.78
2023-04-18T07:24:41.677Z,14.90
2023-04-18T07:25:43.131Z,15.02
2023-04-18T07:26:41.643Z,15.15
2023-04-18T07:27:41.688Z,15.26
2023-04-18T07:28:41.613Z,15.33
2023-04-18T07:29:41.621Z,15.33
2023-04-18T07:30:41.597Z,15.24
2023-04-18T07:31:41.622Z,15.13
2023-04-18T07:32:41.620Z,14.98
2023-04-18T07:33:41.570Z,14.81
2023-04-18T07:34:41.722Z,14.76
2023-04-18T07:35:41.604Z,14.82
2023-04-18T07:36:41.551Z,14.90
2023-04-18T07:37:41.541Z,14.98
2023-04-18T07:38:41.491Z,15.07
2023-04-18T07:39:41.501Z,15.19
2023-04-18T07:40:41.488Z,15.32
2023-04-18T07:41:41.486Z,15.41
2023-04-18T07:42:41.473Z,15.42
2023-04-18T07:43:41.500Z,15.37
2023-04-18T07:44:41.428Z,15.22
2023-04-18T07:45:41.436Z,15.04
2023-04-18T07:46:41.540Z,14.82
2023-04-18T07:47:41.575Z,14.63
2023-04-18T07:48:41.921Z,14.51
2023-04-18T07:49:41.383Z,14.37
2023-04-18T07:50:41.529Z,14.20
2023-04-18T07:51:41.960Z,14.04
2023-04-18T07:52:41.982Z,13.89
2023-04-18T07:53:41.533Z,13.75
2023-04-18T07:54:41.306Z,13.64
2023-04-18T07:55:41.374Z,13.51
2023-04-18T07:56:41.296Z,13.40
2023-04-18T07:57:42.041Z,13.33
2023-04-18T07:58:41.280Z,13.25
2023-04-18T07:59:41.296Z,13.16
2023-04-18T08:00:42.076Z,13.08
2023-04-18T08:01:42.050Z,13.03
2023-04-18T08:02:42.810Z,12.99
2023-04-18T08:03:41.318Z,12.92
2023-04-18T08:04:41.393Z,12.78
2023-04-18T08:05:41.236Z,12.66
2023-04-18T08:06:41.188Z,12.52
2023-04-18T08:07:41.189Z,12.37
2023-04-18T08:08:41.213Z,12.24
2023-04-18T08:09:41.163Z,12.14
2023-04-18T08:10:41.185Z,12.08
2023-04-18T08:11:41.144Z,12.01
2023-04-18T08:12:41.136Z,11.94
2023-04-18T08:13:41.226Z,11.90
2023-04-18T08:14:41.106Z,11.88
2023-04-18T08:15:41.090Z,11.87
2023-04-18T08:16:41.284Z,11.80
2023-04-18T08:17:41.275Z,11.71
2023-04-18T08:18:41.225Z,11.63
2023-04-18T08:19:41.038Z,11.54
2023-04-18T08:20:41.038Z,11.44
2023-04-18T08:21:41.037Z,11.33
2023-04-18T08:22:53.270Z,11.21
2023-04-18T08:23:42.040Z,11.10
2023-04-18T08:24:46.431Z,11.01
2023-04-18T08:25:41.993Z,10.92
2023-04-18T08:26:41.216Z,10.84
2023-04-18T08:27:40.950Z,10.76
2023-04-18T08:28:41.227Z,10.68
2023-04-18T08:29:40.916Z,10.59
2023-04-18T08:30:40.909Z,10.53
2023-04-18T08:31:40.938Z,10.49
2023-04-18T08:32:41.275Z,10.45
2023-04-18T08:33:40.875Z,10.43
2023-04-18T08:34:40.850Z,10.44
2023-04-18T08:35:40.890Z,10.45
2023-04-18T08:36:40.845Z,10.45
2023-04-18T08:37:40.863Z,10.44
2023-04-18T08:38:40.824Z,10.42
2023-04-18T08:39:41.242Z,10.40
2023-04-18T08:40:41.232Z,10.39
2023-04-18T08:41:41.235Z,10.38
2023-04-18T08:42:40.772Z,10.38
2023-04-18T08:43:40.752Z,10.39
2023-04-18T08:44:41.249Z,10.39
2023-04-18T08:45:40.746Z,10.40
2023-04-18T08:46:40.704Z,10.40
2023-04-18T08:47:40.787Z,10.40
2023-04-18T08:48:40.722Z,10.40
2023-04-18T08:49:40.734Z,10.40
2023-04-18T08:50:40.752Z,10.41
2023-04-18T08:51:40.666Z,10.41
2023-04-18T08:52:42.103Z,10.41
2023-04-18T08:53:40.637Z,10.39
2023-04-18T08:54:40.803Z,10.36
2023-04-18T08:55:40.823Z,10.33
2023-04-18T08:56:40.593Z,10.29
2023-04-18T08:57:40.844Z,10.27
2023-04-18T08:58:40.856Z,10.26
2023-04-18T08:59:40.579Z,10.26
2023-04-18T09:00:40.586Z,10.28
2023-04-18T09:01:40.608Z,10.30
2023-04-18T09:02:40.643Z,10.32
2023-04-18T09:03:41.540Z,10.32
2023-04-18T09:04:40.673Z,10.32
2023-04-18T09:05:40.513Z,10.32
2023-04-18T09:06:40.732Z,10.32
2023-04-18T09:07:40.774Z,10.33
2023-04-18T09:08:40.808Z,10.35
2023-04-18T09:09:41.904Z,10.35
2023-04-18T09:10:40.506Z,10.36
2023-04-18T09:11:40.439Z,10.37
2023-04-18T09:12:40.423Z,10.38
2023-04-18T09:13:40.392Z,10.39
2023-04-18T09:14:40.392Z,10.40
2023-04-18T09:15:40.456Z,10.42
2023-04-18T09:16:40.424Z,10.44
2023-04-18T09:17:40.440Z,10.46
2023-04-18T09:18:40.326Z,10.50
2023-04-18T09:19:40.327Z,10.55
2023-04-18T09:20:40.341Z,10.62
2023-04-18T09:21:40.313Z,10.72
2023-04-18T09:22:40.293Z,10.85
2023-04-18T09:23:40.297Z,11.01
2023-04-18T09:24:40.361Z,11.16
2023-04-18T09:25:43.311Z,11.27
2023-04-18T09:26:40.252Z,11.36
2023-04-18T09:27:40.256Z,11.43
2023-04-18T09:28:40.223Z,11.48
2023-04-18T09:29:40.225Z,11.52
2023-04-18T09:30:40.366Z,11.56
2023-04-18T09:31:40.189Z,11.58
2023-04-18T09:32:40.186Z,11.60
2023-04-18T09:33:40.171Z,11.61
2023-04-18T09:34:40.142Z,11.62
2023-04-18T09:35:40.136Z,11.64
2023-04-18T09:36:40.170Z,11.67
2023-04-18T09:37:40.116Z,11.71
2023-04-18T09:38:40.115Z,11.74
2023-04-18T09:39:40.099Z,11.77
2023-04-18T09:40:40.081Z,11.79
2023-04-18T09:41:40.109Z,11.79
2023-04-18T09:42:40.052Z,11.81
2023-04-18T09:43:40.080Z,11.84
2023-04-18T09:44:40.160Z,11.90
2023-04-18T09:45:40.043Z,11.97
2023-04-18T09:46:40.100Z,12.03
2023-04-18T09:47:40.081Z,12.09
2023-04-18T09:48:39.981Z,12.13
2023-04-18T09:49:39.998Z,12.13
2023-04-18T09:50:39.992Z,12.12
2023-04-18T09:51:39.989Z,12.12
2023-04-18T09:52:39.943Z,12.12
2023-04-18T09:53:40.036Z,12.12
2023-04-18T09:54:39.927Z,12.11
2023-04-18T09:55:39.966Z,12.08
2023-04-18T09:56:39.878Z,12.05
2023-04-18T09:57:39.908Z,12.02
2023-04-18T09:58:39.866Z,12.00
2023-04-18T09:59:39.865Z,11.98
2023-04-18T10:00:39.844Z,11.97
2023-04-18T10:01:39.869Z,11.98
2023-04-18T10:02:39.953Z,12.00
2023-04-18T10:03:39.962Z,12.01
2023-04-18T10:04:39.813Z,12.02
2023-04-18T10:05:39.869Z,12.02
2023-04-18T10:06:39.871Z,12.01
2023-04-18T10:07:39.781Z,12.00
2023-04-18T10:08:39.755Z,11.98
2023-04-18T10:09:39.732Z,11.94
2023-04-18T10:10:39.730Z,11.91
2023-04-18T10:11:39.711Z,11.90
2023-04-18T10:12:39.716Z,11.88
2023-04-18T10:13:39.708Z,11.86
2023-04-18T10:14:39.671Z,11.84
2023-04-18T10:15:41.192Z,11.83
2023-04-18T10:16:39.704Z,11.81
2023-04-18T10:17:42.764Z,11.79
2023-04-18T10:18:40.611Z,11.77
2023-04-18T10:19:39.632Z,11.78
2023-04-18T10:20:39.588Z,11.77
2023-04-18T10:21:39.598Z,11.75
2023-04-18T10:22:39.581Z,11.72
2023-04-18T10:23:39.602Z,11.70
2023-04-18T10:24:39.623Z,11.70
2023-04-18T10:25:39.559Z,11.70
2023-04-18T10:26:39.535Z,11.71
2023-04-18T10:27:39.528Z,11.71
2023-04-18T10:28:39.524Z,11.71
2023-04-18T10:29:39.537Z,11.70
2023-04-18T10:30:39.485Z,11.69
2023-04-18T10:31:39.573Z,11.68
2023-04-18T10:32:39.502Z,11.68
2023-04-18T10:33:41.062Z,11.67
2023-04-18T10:34:39.457Z,11.68
2023-04-18T10:35:41.327Z,11.68
2023-04-18T10:36:39.399Z,11.69
2023-04-18T10:37:39.418Z,11.70
2023-04-18T10:38:39.719Z,11.72
2023-04-18T10:39:39.404Z,11.73
2023-04-18T10:40:39.393Z,11.75
2023-04-18T10:41:39.370Z,11.75
2023-04-18T10:42:39.371Z,11.76
2023-04-18T10:43:39.351Z,11.78
2023-04-18T10:44:39.311Z,11.79
2023-04-18T10:45:39.320Z,11.80
2023-04-18T10:46:39.336Z,11.83
2023-04-18T10:47:39.483Z,11.86
2023-04-18T10:48:39.377Z,11.90
2023-04-18T10:49:39.283Z,11.95
2023-04-18T10:50:39.249Z,12.00
2023-04-18T10:51:39.252Z,12.06
2023-04-18T10:52:39.214Z,12.11
2023-04-18T10:53:39.226Z,12.16
2023-04-18T10:54:39.262Z,12.21
2023-04-18T10:55:39.349Z,12.25
2023-04-18T10:56:39.204Z,12.30
2023-04-18T10:57:39.195Z,12.35
2023-04-18T10:58:39.167Z,12.40
2023-04-18T10:59:39.127Z,12.44
2023-04-18T11:00:39.177Z,12.47
2023-04-18T11:01:39.157Z,12.52
2023-04-18T11:02:39.296Z,12.57
2023-04-18T11:03:39.186Z,12.62
2023-04-18T11:04:39.111Z,12.67
2023-04-18T11:05:39.087Z,12.71
2023-04-18T11:06:39.079Z,12.73
2023-04-18T11:07:39.091Z,12.75
2023-04-18T11:08:39.057Z,12.76
2023-04-18T11:09:39.041Z,12.78
2023-04-18T11:10:39.060Z,12.79
2023-04-18T11:11:39.369Z,12.79
2023-04-18T11:12:39.029Z,12.78
2023-04-18T11:13:39.350Z,12.75
2023-04-18T11:14:39.362Z,12.73
2023-04-18T11:15:38.983Z,12.72
2023-04-18T11:16:38.980Z,12.71
2023-04-18T11:17:38.979Z,12.70
2023-04-18T11:18:38.950Z,12.70
2023-04-18T11:19:38.921Z,12.71
2023-04-18T11:20:38.938Z,12.73
2023-04-18T11:21:38.897Z,12.75
2023-04-18T11:22:38.893Z,12.78
2023-04-18T11:23:38.859Z,12.81
2023-04-18T11:24:38.894Z,12.83
2023-04-18T11:25:38.842Z,12.85
2023-04-18T11:26:38.861Z,12.85
2023-04-18T11:27:38.810Z,12.85
2023-04-18T11:28:38.812Z,12.85
2023-04-18T11:29:38.844Z,12.86
2023-04-18T11:30:38.800Z,12.87
2023-04-18T11:31:38.824Z,12.88
2023-04-18T11:32:38.776Z,12.89
2023-04-18T11:33:38.751Z,12.91
2023-04-18T11:34:38.764Z,12.94
2023-04-18T11:35:38.760Z,12.98
2023-04-18T11:36:38.773Z,13.02
2023-04-18T11:37:38.686Z,13.06
2023-04-18T11:38:38.707Z,13.09
2023-04-18T11:39:38.667Z,13.13
2023-04-18T11:40:38.672Z,13.17
2023-04-18T11:41:38.653Z,13.22
2023-04-18T11:42:38.656Z,13.26
2023-04-18T11:43:38.614Z,13.30
2023-04-18T11:44:38.632Z,13.35
2023-04-18T11:45:38.716Z,13.38
2023-04-18T11:46:38.691Z,13.42
2023-04-18T11:47:38.626Z,13.47
2023-04-18T11:48:38.594Z,13.50
2023-04-18T11:49:38.560Z,13.53
2023-04-18T11:50:38.571Z,13.55
2023-04-18T11:51:38.790Z,13.58
2023-04-18T11:52:38.545Z,13.60
2023-04-18T11:53:39.225Z,13.61
2023-04-18T11:54:38.581Z,13.62
2023-04-18T11:55:38.533Z,13.63
2023-04-18T11:56:38.498Z,13.65
2023-04-18T11:57:38.549Z,13.69
2023-04-18T11:58:38.502Z,13.73
2023-04-18T11:59:38.433Z,13.77
2023-04-18T12:00:38.449Z,13.81
2023-04-18T12:01:38.887Z,13.84
2023-04-18T12:02:38.526Z,13.84
2023-04-18T12:03:38.637Z,13.84
2023-04-18T12:04:38.640Z,13.82
2023-04-18T12:05:38.877Z,13.81
2023-04-18T12:06:38.370Z,13.80
2023-04-18T12:07:38.349Z,13.80
2023-04-18T12:08:38.369Z,13.80
2023-04-18T12:09:38.598Z,13.79
2023-04-18T12:10:39.772Z,13.78
2023-04-18T12:11:38.308Z,13.76
2023-04-18T12:12:38.296Z,13.73
2023-04-18T12:13:38.284Z,13.71
2023-04-18T12:14:39.743Z,13.70
2023-04-18T12:15:38.290Z,13.70
2023-04-18T12:16:38.246Z,13.70
2023-04-18T12:17:38.868Z,13.68
2023-04-18T12:18:38.228Z,13.67
2023-04-18T12:19:39.745Z,13.66
2023-04-18T12:20:38.210Z,13.66
2023-04-18T12:21:38.179Z,13.67
2023-04-18T12:22:39.648Z,13.68
2023-04-18T12:23:38.150Z,13.68
2023-04-18T12:24:38.189Z,13.68
2023-04-18T12:25:39.087Z,13.69
2023-04-18T12:26:38.434Z,13.72
2023-04-18T12:27:38.100Z,13.74
2023-04-18T12:28:38.118Z,13.76
2023-04-18T12:29:38.099Z,13.79
2023-04-18T12:30:38.097Z,13.81
2023-04-18T12:31:38.103Z,13.85
2023-04-18T12:32:38.063Z,13.89
2023-04-18T12:33:38.957Z,13.92
2023-04-18T12:34:38.045Z,13.95
2023-04-18T12:35:38.774Z,13.97
2023-04-18T12:36:38.016Z,13.97
2023-04-18T12:37:38.017Z,13.99
2023-04-18T12:38:37.995Z,14.01
2023-04-18T12:39:37.990Z,14.02
2023-04-18T12:40:37.955Z,14.05
2023-04-18T12:41:39.394Z,14.06
2023-04-18T12:42:37.956Z,14.08
2023-04-18T12:43:37.913Z,14.07
2023-04-18T12:44:37.931Z,14.03
2023-04-18T12:45:37.913Z,13.99
2023-04-18T12:46:37.942Z,13.98
2023-04-18T12:47:37.897Z,13.96
2023-04-18T12:48:37.907Z,13.96
2023-04-18T12:49:37.864Z,13.96
2023-04-18T12:50:37.873Z,13.97
2023-04-18T12:51:37.864Z,13.99
2023-04-18T12:52:37.821Z,14.02
2023-04-18T12:53:37.803Z,14.05
2023-04-18T12:54:38.084Z,14.08
2023-04-18T12:55:37.835Z,14.12
2023-04-18T12:56:37.791Z,14.15
2023-04-18T12:57:38.069Z,14.19
2023-04-18T12:58:37.754Z,14.22
2023-04-18T12:59:37.727Z,14.25
2023-04-18T13:00:37.835Z,14.28
2023-04-18T13:01:37.782Z,14.30
2023-04-18T13:02:37.963Z,14.32
2023-04-18T13:03:37.946Z,14.34
2023-04-18T13:04:38.481Z,14.36
2023-04-18T13:05:38.030Z,14.38